富士山静岡空港METAR/TAF(約33km東):

RJNS 210700Z 23012KT 190V260 9999 FEW020 BKN/// 31/23 Q1011

TAF RJNS 210506Z 2106/2212 24010KT 9999 FEW015= TAF RJOK 210509Z 2106/2212 16007KT 9999 FEW020 BKN050 TEMPO 2106/2110 TS FEW020 FEW025CB BKN040 BECMG 2112/2114 35005KT BECMG 2121/2200 17007KT


風向風力(Windy.com):
スマホでの閲覧には、アプリ版Windy(Android/iOS)が適切です。